Calimesa, CA (92320)

5:34 AM PST on February 06, 2016 (GMT -0800)
County Line | | Change Station
CLOSE
Current Station
Personal Weather Station
Location: Yucaipa, CA
Elevation: 2726 ft
Nearby Weather Stations
Active Advisory: Wind Advisory

Elev 2726 ft 34.01 °N, 117.02 °W | Updated 5 seconds ago

Clear
Clear
42.8 °F
Feels Like 43 °F
N
0.0
Wind Variable Wind from NNE
Gusts 1.0 mph

Today
High -- | Low -- °F
--% Chance of Precip.
Yesterday
High -- | Low -- °F
Precip. -- in
Pressure 30.30 in
Visibility 10.0 miles
Clouds Clear
Windchill 43 °F
Dew Point 21 °F
Humidity 42%
Rainfall 0.00 in
Snow Depth Not available.
6:41 AM 5:23 PM
Waning Crescent, 5% visible
METAR KRIV 061258Z AUTO 03005KT 10SM CLR 08/M06 A3030 RMK AO2 SLP258 T00831059
Pressure 30.30 in
Visibility 10.0 miles
Clouds Clear
Windchill 43 °F
Dew Point 21 °F
Humidity 42%
Rainfall 0.00 in
Snow Depth Not available.
6:41 AM 5:23 PM
Waning Crescent, 5% visible
METAR KRIV 061258Z AUTO 03005KT 10SM CLR 08/M06 A3030 RMK AO2 SLP258 T00831059

10-Day Weather Forecast

Almanac

Astronomy

Feb. 06, 2016 Rise Set
Actual Time
Civil Twilight
Nautical Twilight
Astronomical Twilight
Moon
Length of Visible Light
Length of Day
Tomorrow will be .
, % of the Moon is Illuminated

Today's Extremes

State Highs State Lows

Community

WunderPhotos

Upload Photos

1,890,971 photos uploaded!

WunderBlog® & News

Nearby

Air Quality

  Air Quality AQ Index Pollutant
Not available.

Snow Depth

Station Depth Elevation

Earthquake Activity

City Distance Mag. Time & Date
Minimum magnitude displayed is 2.5.

Coastal Water Temperatures

Place Temperature

Stations

Nearby Weather Stations

Station Location Temp. Windchill Dew Point Humidity Wind Precip. Elev Updated Type
                   

Watches & Warnings

Wind Advisory
Issued: 3:00 AM PST Feb. 6, 2016 – National Weather Service

... Wind Advisory remains in effect until 1 PM PST this
afternoon...

* winds... areas of northeast to east winds 20 to 30 mph with
gusts of 40 to 50 mph. Gusts to 60 mph in the windiest
locations.

* Timing... gusty winds this morning into early afternoon.

* Location... strongest winds along coastal slopes and
foothills... and through and below the passes and canyons...
including Cajon and san gorgonio passes.

* Visibility... locally reduced to 1 mile or less in blowing dust.

* Impacts... the strong winds will make for hazardous driving
conditions for high profile vehicles... including along
interstates 15... 215... 10... and 8. Blowing dust may reduce
visibilities. Broken tree limbs and other debris in roadways
possible.

* Outlook... although winds will weaken later this afternoon... even
stronger offshore winds will surface Sunday and Monday.

Precautionary/preparedness actions...

A Wind Advisory means that winds of 35 mph are expected. Winds
this strong can make driving difficult... especially for high
profile vehicles. Use extra caution.